sensor_id;sensor_type;location;lat;lon;timestamp;pressure;altitude;pressure_sealevel;temperature;humidity
69593;BME280;56796;50.122;14.468;2023-04-10T00:08:29;988.13;;;7.4;91.93
69593;BME280;56796;50.122;14.468;2023-04-10T00:27:48;987.93;;;7.43;92.31
69593;BME280;56796;50.122;14.468;2023-04-10T00:47:14;987.84;;;7.46;93.51
69593;BME280;56796;50.122;14.468;2023-04-10T01:06:45;987.62;;;7.44;92.49
69593;BME280;56796;50.122;14.468;2023-04-10T01:26:08;987.66;;;7.22;94.91
69593;BME280;56796;50.122;14.468;2023-04-10T01:45:33;987.59;;;7.24;97.49
69593;BME280;56796;50.122;14.468;2023-04-10T02:04:59;987.64;;;7.27;98.3
69593;BME280;56796;50.122;14.468;2023-04-10T02:24:26;987.64;;;7.31;98.93
69593;BME280;56796;50.122;14.468;2023-04-10T02:43:53;987.66;;;7.23;99.71
69593;BME280;56796;50.122;14.468;2023-04-10T03:03:22;987.72;;;7.14;100
69593;BME280;56796;50.122;14.468;2023-04-10T03:22:40;987.75;;;7.18;99.77
69593;BME280;56796;50.122;14.468;2023-04-10T03:42:09;987.75;;;7.18;99.25
69593;BME280;56796;50.122;14.468;2023-04-10T04:01:28;987.78;;;7.15;99.23
69593;BME280;56796;50.122;14.468;2023-04-10T04:20:57;987.86;;;7.04;100
69593;BME280;56796;50.122;14.468;2023-04-10T04:40:15;988;;;7.1;99.88
69593;BME280;56796;50.122;14.468;2023-04-10T04:59:41;988.2;;;7.13;100
69593;BME280;56796;50.122;14.468;2023-04-10T05:19:07;988.24;;;7.11;100
69593;BME280;56796;50.122;14.468;2023-04-10T05:38:34;988.39;;;7.61;100
69593;BME280;56796;50.122;14.468;2023-04-10T05:58:02;988.42;;;8.09;99.12
69593;BME280;56796;50.122;14.468;2023-04-10T06:17:31;988.42;;;8.43;96.79
69593;BME280;56796;50.122;14.468;2023-04-10T06:37:00;988.52;;;9.46;92.37
69593;BME280;56796;50.122;14.468;2023-04-10T06:56:28;988.52;;;9.8;87.86
69593;BME280;56796;50.122;14.468;2023-04-10T07:15:58;988.48;;;11.45;81.14
69593;BME280;56796;50.122;14.468;2023-04-10T07:35:34;988.36;;;13.05;73.52
69593;BME280;56796;50.122;14.468;2023-04-10T07:55:01;988.28;;;14.51;64.04
69593;BME280;56796;50.122;14.468;2023-04-10T08:14:32;988.21;;;15.13;63.23
69593;BME280;56796;50.122;14.468;2023-04-10T08:34:04;988.14;;;15.6;58.52
69593;BME280;56796;50.122;14.468;2023-04-10T08:53:36;988.06;;;16.7;54.73
69593;BME280;56796;50.122;14.468;2023-04-10T09:12:54;988.08;;;14.13;60.76
69593;BME280;56796;50.122;14.468;2023-04-10T09:52:00;987.64;;;16.95;51.1
69593;BME280;56796;50.122;14.468;2023-04-10T10:11:25;987.4;;;18.25;49.04
69593;BME280;56796;50.122;14.468;2023-04-10T10:30:56;987.28;;;17.74;48.45
69593;BME280;56796;50.122;14.468;2023-04-10T11:09:48;986.82;;;19.36;45.36
69593;BME280;56796;50.122;14.468;2023-04-10T11:48:41;986.39;;;17.86;43.02
69593;BME280;56796;50.122;14.468;2023-04-10T12:08:02;986.13;;;16.36;47.62
69593;BME280;56796;50.122;14.468;2023-04-10T12:27:28;985.82;;;17.84;43.15
69593;BME280;56796;50.122;14.468;2023-04-10T12:47:00;985.62;;;17.75;42.13
69593;BME280;56796;50.122;14.468;2023-04-10T13:06:19;985.24;;;17.01;42.93
69593;BME280;56796;50.122;14.468;2023-04-10T13:25:44;984.82;;;17.6;42.63
69593;BME280;56796;50.122;14.468;2023-04-10T13:45:14;984.65;;;18.31;37.48
69593;BME280;56796;50.122;14.468;2023-04-10T14:04:35;984.53;;;16.62;41.82
69593;BME280;56796;50.122;14.468;2023-04-10T14:24:04;984.37;;;16.69;41.03
69593;BME280;56796;50.122;14.468;2023-04-10T14:43:21;984.28;;;15.89;42.93
69593;BME280;56796;50.122;14.468;2023-04-10T15:02:42;984.01;;;15.07;45.7
69593;BME280;56796;50.122;14.468;2023-04-10T15:22:05;983.84;;;15.66;45.14
69593;BME280;56796;50.122;14.468;2023-04-10T15:41:33;983.6;;;15.66;44.05
69593;BME280;56796;50.122;14.468;2023-04-10T16:01:00;983.25;;;16.16;44.01
69593;BME280;56796;50.122;14.468;2023-04-10T16:20:27;982.91;;;14.9;45.45
69593;BME280;56796;50.122;14.468;2023-04-10T16:39:51;982.7;;;14.38;47.12
69593;BME280;56796;50.122;14.468;2023-04-10T16:59:14;982.48;;;13.65;48.62
69593;BME280;56796;50.122;14.468;2023-04-10T17:18:39;982.46;;;13.32;49.91
69593;BME280;56796;50.122;14.468;2023-04-10T17:38:04;982.38;;;12.9;51.5
69593;BME280;56796;50.122;14.468;2023-04-10T17:57:30;982.2;;;12.67;52.69
69593;BME280;56796;50.122;14.468;2023-04-10T18:16:57;982.17;;;12.35;54.53
69593;BME280;56796;50.122;14.468;2023-04-10T18:36:22;982.15;;;11.88;56.51
69593;BME280;56796;50.122;14.468;2023-04-10T18:55:48;982.1;;;11.55;57.97
69593;BME280;56796;50.122;14.468;2023-04-10T19:15:13;981.96;;;11.17;59.83
69593;BME280;56796;50.122;14.468;2023-04-10T19:34:38;981.64;;;10.83;61.41
69593;BME280;56796;50.122;14.468;2023-04-10T19:54:03;981.56;;;10.54;62.84
69593;BME280;56796;50.122;14.468;2023-04-10T20:13:29;981.25;;;10.29;64.25
69593;BME280;56796;50.122;14.468;2023-04-10T20:32:54;981.09;;;9.97;65.72
69593;BME280;56796;50.122;14.468;2023-04-10T20:52:18;981.06;;;9.62;67.69
69593;BME280;56796;50.122;14.468;2023-04-10T21:11:53;980.84;;;9.37;69.02
69593;BME280;56796;50.122;14.468;2023-04-10T21:31:18;980.67;;;9.17;70.02
69593;BME280;56796;50.122;14.468;2023-04-10T21:50:45;980.53;;;8.92;71.35
69593;BME280;56796;50.122;14.468;2023-04-10T22:10:10;980.27;;;8.72;72.34
69593;BME280;56796;50.122;14.468;2023-04-10T22:29:36;980.06;;;8.59;73.39
69593;BME280;56796;50.122;14.468;2023-04-10T22:49:02;979.92;;;8.46;73.7
69593;BME280;56796;50.122;14.468;2023-04-10T23:08:27;979.8;;;8.22;74.79
69593;BME280;56796;50.122;14.468;2023-04-10T23:27:53;979.19;;;7.93;75.57
69593;BME280;56796;50.122;14.468;2023-04-10T23:47:19;979.07;;;7.98;74.85
